createdAt,value
2022-12-20T00:01:36.829Z,99934.69
2022-12-20T00:04:06.676Z,99931.38
2022-12-20T00:06:37.512Z,99930.78
2022-12-20T00:09:08.345Z,99936.50
2022-12-20T00:11:37.408Z,99936.28
2022-12-20T00:14:05.392Z,99930.78
2022-12-20T00:16:33.719Z,99920.34
2022-12-20T00:19:04.693Z,99888.31
2022-12-20T00:21:34.707Z,99896.41
2022-12-20T00:24:05.204Z,99919.75
2022-12-20T00:26:35.906Z,99918.63
2022-12-20T00:29:04.319Z,99926.41
2022-12-20T00:31:33.200Z,99930.34
2022-12-20T00:34:02.417Z,99930.63
2022-12-20T00:36:32.923Z,99934.50
2022-12-20T00:39:01.720Z,99928.56
2022-12-20T00:41:32.717Z,99932.91
2022-12-20T00:44:01.034Z,99930.63
2022-12-20T00:46:29.283Z,99922.28
2022-12-20T00:48:57.933Z,99919.00
2022-12-20T00:51:28.644Z,99905.47
2022-12-20T00:53:57.318Z,99905.75
2022-12-20T00:56:26.156Z,99888.47
2022-12-20T00:58:56.075Z,99896.34
2022-12-20T01:01:26.377Z,99864.63
2022-12-20T01:03:55.452Z,99903.75
2022-12-20T01:06:24.224Z,99909.38
2022-12-20T01:08:52.359Z,99899.47
2022-12-20T01:11:22.800Z,99883.50
2022-12-20T01:13:52.818Z,99877.78
2022-12-20T01:16:25.064Z,99895.88
2022-12-20T01:18:54.189Z,99898.63
2022-12-20T01:21:24.777Z,99911.81
2022-12-20T01:23:53.115Z,99912.66
2022-12-20T01:26:25.142Z,99913.50
2022-12-20T01:28:56.219Z,99907.25
2022-12-20T01:31:26.642Z,99896.09
2022-12-20T01:33:54.911Z,99888.47
2022-12-20T01:36:25.913Z,99873.38
2022-12-20T01:38:57.957Z,99862.31
2022-12-20T01:41:26.371Z,99832.63
2022-12-20T01:43:56.499Z,99842.41
2022-12-20T01:46:28.082Z,99852.00
2022-12-20T01:49:01.296Z,99853.16
2022-12-20T01:51:32.061Z,99853.94
2022-12-20T01:54:06.025Z,99846.97
2022-12-20T01:56:34.595Z,99860.25
2022-12-20T01:59:03.258Z,99856.66
2022-12-20T02:01:32.918Z,99857.34
2022-12-20T02:04:01.174Z,99874.84
2022-12-20T02:06:29.225Z,99862.97
2022-12-20T02:09:02.229Z,99879.53
2022-12-20T02:11:50.463Z,99873.38
2022-12-20T02:14:30.089Z,99868.03
2022-12-20T02:17:13.944Z,99866.44
2022-12-20T02:19:58.404Z,99841.56
2022-12-20T02:22:37.871Z,99832.94
2022-12-20T02:25:37.243Z,99854.91
2022-12-20T02:28:12.401Z,99867.41
2022-12-20T02:30:46.772Z,99853.84
2022-12-20T02:33:16.495Z,99850.97
2022-12-20T02:35:44.623Z,99842.94
2022-12-20T02:38:28.858Z,99830.38
2022-12-20T02:41:02.506Z,99825.94
2022-12-20T02:43:50.240Z,99812.97
2022-12-20T02:46:22.318Z,99808.56
2022-12-20T02:48:53.083Z,99806.25
2022-12-20T02:51:24.630Z,99828.91
2022-12-20T02:53:53.582Z,99821.97
2022-12-20T02:56:26.963Z,99814.28
2022-12-20T02:59:00.040Z,99811.03
2022-12-20T03:01:37.427Z,99807.44
2022-12-20T03:04:09.349Z,99799.97
2022-12-20T03:06:38.836Z,99786.44
2022-12-20T03:09:07.399Z,99771.50
2022-12-20T03:11:35.392Z,99793.69
2022-12-20T03:14:03.928Z,99793.13
2022-12-20T03:16:33.330Z,99786.59
2022-12-20T03:19:01.312Z,99779.84
2022-12-20T03:21:29.321Z,99780.66
2022-12-20T03:23:57.405Z,99776.97
2022-12-20T03:26:25.900Z,99774.16
2022-12-20T03:28:54.104Z,99779.41
2022-12-20T03:31:22.680Z,99777.81
2022-12-20T03:33:52.078Z,99762.69
2022-12-20T03:36:23.743Z,99761.66
2022-12-20T03:38:52.058Z,99759.00
2022-12-20T03:41:21.344Z,99767.94
2022-12-20T03:43:51.420Z,99770.97
2022-12-20T03:46:19.893Z,99782.22
2022-12-20T03:48:48.179Z,99770.81
2022-12-20T03:51:17.557Z,99770.97
2022-12-20T03:53:45.563Z,99771.41
2022-12-20T03:56:13.701Z,99767.66
2022-12-20T03:58:41.893Z,99759.75
2022-12-20T04:01:22.003Z,99749.25
2022-12-20T04:03:50.309Z,99749.28
2022-12-20T04:06:21.455Z,99765.72
2022-12-20T04:08:49.661Z,99774.03
2022-12-20T04:11:17.841Z,99773.72
2022-12-20T04:13:47.118Z,99756.88
2022-12-20T04:16:18.005Z,99768.53
2022-12-20T04:18:46.183Z,99761.38
2022-12-20T04:21:14.577Z,99774.03
2022-12-20T04:23:45.089Z,99774.72
2022-12-20T04:26:13.568Z,99776.91
2022-12-20T04:28:41.662Z,99773.91
2022-12-20T04:31:09.972Z,99763.44
2022-12-20T04:33:41.852Z,99773.53
2022-12-20T04:36:10.446Z,99788.09
2022-12-20T04:38:38.528Z,99779.63
2022-12-20T04:41:08.043Z,99765.22
2022-12-20T04:43:36.075Z,99766.53
2022-12-20T04:46:04.264Z,99775.84
2022-12-20T04:49:00.063Z,99779.56
2022-12-20T04:51:20.338Z,99767.97
2022-12-20T04:53:48.201Z,99783.75
2022-12-20T04:56:21.060Z,99773.25
2022-12-20T04:58:51.327Z,99769.38
2022-12-20T05:01:20.460Z,99774.50
2022-12-20T05:03:49.402Z,99785.75
2022-12-20T05:06:17.895Z,99793.25
2022-12-20T05:08:46.355Z,99784.22
2022-12-20T05:11:14.577Z,99778.13
2022-12-20T05:13:44.327Z,99763.84
2022-12-20T05:16:12.521Z,99777.28
2022-12-20T05:18:46.483Z,99743.72
2022-12-20T05:21:34.508Z,99741.81
2022-12-20T05:24:19.947Z,99733.72
2022-12-20T05:26:48.486Z,99739.50
2022-12-20T05:29:18.005Z,99753.63
2022-12-20T05:31:46.010Z,99733.50
2022-12-20T05:34:14.351Z,99731.28
2022-12-20T05:36:42.562Z,99714.28
2022-12-20T05:39:12.887Z,99728.75
2022-12-20T05:41:41.381Z,99724.19
2022-12-20T05:44:09.754Z,99724.63
2022-12-20T05:46:40.276Z,99713.69
2022-12-20T05:49:08.380Z,99705.44
2022-12-20T05:51:36.609Z,99708.28
2022-12-20T05:54:05.029Z,99716.50
2022-12-20T05:56:32.972Z,99709.41
2022-12-20T05:59:00.910Z,99709.56
2022-12-20T06:01:29.198Z,99710.19
2022-12-20T06:03:58.629Z,99707.56
2022-12-20T06:06:26.680Z,99713.38
2022-12-20T06:08:56.329Z,99724.28
2022-12-20T06:11:29.858Z,99705.88
2022-12-20T06:13:59.457Z,99708.28
2022-12-20T06:16:28.590Z,99703.16
2022-12-20T06:18:58.325Z,99709.53
2022-12-20T06:21:28.690Z,99708.56
2022-12-20T06:23:57.016Z,99714.00
2022-12-20T06:26:25.086Z,99717.25
2022-12-20T06:28:54.994Z,99689.84
2022-12-20T06:31:23.014Z,99716.94
2022-12-20T06:33:51.222Z,99722.16
2022-12-20T06:36:20.688Z,99720.88
2022-12-20T06:38:49.533Z,99728.97
2022-12-20T06:41:17.509Z,99721.03
2022-12-20T06:43:45.496Z,99721.59
2022-12-20T06:46:13.486Z,99706.34
2022-12-20T06:48:41.707Z,99710.22
2022-12-20T06:51:11.190Z,99703.50
2022-12-20T06:53:40.585Z,99709.34
2022-12-20T06:56:08.911Z,99713.41
2022-12-20T06:58:37.018Z,99729.88
2022-12-20T07:01:05.152Z,99735.31
2022-12-20T07:03:33.214Z,99752.66
2022-12-20T07:06:04.011Z,99751.97
2022-12-20T07:08:31.979Z,99754.13
2022-12-20T07:11:06.942Z,99759.81
2022-12-20T07:13:35.579Z,99751.81
2022-12-20T07:16:05.164Z,99738.31
2022-12-20T07:18:35.480Z,99744.00
2022-12-20T07:21:05.445Z,99743.66
2022-12-20T07:23:33.673Z,99744.91
2022-12-20T07:26:03.934Z,99759.63
2022-12-20T07:28:35.968Z,99749.66
2022-12-20T07:31:04.938Z,99757.09
2022-12-20T07:33:33.713Z,99763.69
2022-12-20T07:36:03.177Z,99761.81
2022-12-20T07:38:31.265Z,99741.22
2022-12-20T07:41:00.110Z,99753.88
2022-12-20T07:43:28.446Z,99764.91
2022-12-20T07:45:58.672Z,99758.72
2022-12-20T07:48:26.845Z,99748.75
2022-12-20T07:50:58.835Z,99756.41
2022-12-20T07:53:32.737Z,99756.34
2022-12-20T07:56:06.501Z,99735.78
2022-12-20T07:58:36.496Z,99724.63
2022-12-20T08:01:06.820Z,99720.41
2022-12-20T08:03:39.690Z,99724.06
2022-12-20T08:06:09.731Z,99736.31
2022-12-20T08:08:41.481Z,99745.16
2022-12-20T08:11:11.022Z,99746.25
2022-12-20T08:13:45.936Z,99742.59
2022-12-20T08:16:16.137Z,99744.09
2022-12-20T08:18:44.916Z,99760.06
2022-12-20T08:21:14.686Z,99768.06
2022-12-20T08:23:42.934Z,99764.19
2022-12-20T08:26:11.106Z,99774.31
2022-12-20T08:28:39.230Z,99757.94
2022-12-20T08:31:09.686Z,99759.47
2022-12-20T08:33:40.333Z,99762.31
2022-12-20T08:36:11.315Z,99752.09
2022-12-20T08:38:39.613Z,99752.59
2022-12-20T08:41:11.074Z,99751.94
2022-12-20T08:43:40.279Z,99758.00
2022-12-20T08:46:09.085Z,99758.97
2022-12-20T08:48:38.626Z,99772.44
2022-12-20T08:51:10.043Z,99789.00
2022-12-20T08:53:39.365Z,99798.41
2022-12-20T08:56:09.316Z,99779.75
2022-12-20T08:58:38.222Z,99789.97
2022-12-20T09:01:08.558Z,99787.41
2022-12-20T09:03:39.273Z,99796.63
2022-12-20T09:06:08.974Z,99790.41
2022-12-20T09:08:38.941Z,99812.34
2022-12-20T09:11:09.174Z,99798.78
2022-12-20T09:13:43.433Z,99784.97
2022-12-20T09:16:16.859Z,99802.19
2022-12-20T09:18:49.636Z,99815.50
2022-12-20T09:21:17.663Z,99797.31
2022-12-20T09:23:45.812Z,99771.50
2022-12-20T09:26:15.306Z,99783.63
2022-12-20T09:28:44.270Z,99779.22
2022-12-20T09:31:13.928Z,99777.09
2022-12-20T09:33:43.053Z,99766.19
2022-12-20T09:36:15.493Z,99754.59
2022-12-20T09:38:43.485Z,99756.25
2022-12-20T09:41:29.928Z,99769.94
2022-12-20T09:43:59.768Z,99753.88
2022-12-20T09:46:28.579Z,99751.22
2022-12-20T09:48:58.625Z,99737.94
2022-12-20T09:51:44.644Z,99749.00
2022-12-20T09:54:23.541Z,99742.50
2022-12-20T09:56:59.341Z,99744.19
2022-12-20T09:59:27.542Z,99756.75
2022-12-20T10:01:55.717Z,99752.72
2022-12-20T10:04:26.823Z,99749.38
2022-12-20T10:07:10.957Z,99749.72
2022-12-20T10:09:56.619Z,99754.16
2022-12-20T10:12:34.656Z,99749.19
2022-12-20T10:15:18.479Z,99740.34
2022-12-20T10:17:56.716Z,99751.72
2022-12-20T10:20:39.101Z,99744.19
2022-12-20T10:23:14.654Z,99746.34
2022-12-20T10:25:45.056Z,99738.50
2022-12-20T10:28:17.342Z,99757.72
2022-12-20T10:30:46.058Z,99760.09
2022-12-20T10:33:20.734Z,99732.97
2022-12-20T10:35:50.709Z,99740.31
2022-12-20T10:38:20.962Z,99758.91
2022-12-20T10:43:53.767Z,99735.28
2022-12-20T10:46:22.039Z,99752.88
2022-12-20T10:48:53.409Z,99752.50
2022-12-20T10:51:23.107Z,99737.09
2022-12-20T10:53:55.891Z,99720.28
2022-12-20T10:56:27.501Z,99716.31
2022-12-20T10:58:59.362Z,99702.84
2022-12-20T11:01:31.781Z,99700.25
2022-12-20T11:04:02.155Z,99694.06
2022-12-20T11:06:42.551Z,99702.25
2022-12-20T11:09:28.569Z,99689.03
2022-12-20T11:12:06.101Z,99687.34
2022-12-20T11:14:39.206Z,99696.38
2022-12-20T11:17:23.704Z,99708.88
2022-12-20T11:20:27.978Z,99721.59
2022-12-20T11:23:06.560Z,99708.50
2022-12-20T11:25:47.672Z,99712.72
2022-12-20T11:28:32.188Z,99702.78
2022-12-20T11:31:13.249Z,99699.41
2022-12-20T11:34:04.563Z,99701.22
2022-12-20T11:36:49.758Z,99696.97
2022-12-20T11:39:27.803Z,99679.81
2022-12-20T11:42:04.887Z,99683.47
2022-12-20T11:44:55.506Z,99675.47
2022-12-20T11:47:45.683Z,99682.28
2022-12-20T11:50:27.353Z,99679.50
2022-12-20T11:53:00.695Z,99688.19
2022-12-20T11:55:33.146Z,99677.41
2022-12-20T11:58:18.537Z,99696.78
2022-12-20T12:00:54.282Z,99674.56
2022-12-20T12:03:29.903Z,99692.84
2022-12-20T12:06:01.946Z,99678.16
2022-12-20T12:08:37.117Z,99677.63
2022-12-20T12:11:39.669Z,99695.22
2022-12-20T12:14:04.752Z,99693.72
2022-12-20T12:16:36.808Z,99683.44
2022-12-20T12:19:09.799Z,99676.13
2022-12-20T12:21:44.092Z,99659.56
2022-12-20T12:24:20.860Z,99662.91
2022-12-20T12:26:49.223Z,99656.63
2022-12-20T12:29:22.471Z,99658.13
2022-12-20T12:31:55.954Z,99655.78
2022-12-20T12:34:43.803Z,99657.41
2022-12-20T12:37:43.423Z,99634.00
2022-12-20T12:40:30.702Z,99616.63
2022-12-20T12:43:30.412Z,99616.09
2022-12-20T12:46:01.153Z,99614.22
2022-12-20T12:48:42.067Z,99622.66
2022-12-20T12:51:12.099Z,99616.88
2022-12-20T12:53:45.242Z,99600.56
2022-12-20T12:56:46.261Z,99618.59
2022-12-20T12:59:26.110Z,99611.91
2022-12-20T13:01:57.687Z,99629.94
2022-12-20T13:04:28.961Z,99622.22
2022-12-20T13:07:00.600Z,99635.88
2022-12-20T13:09:43.233Z,99636.31
2022-12-20T13:12:51.178Z,99642.81
2022-12-20T13:15:51.272Z,99645.19
2022-12-20T13:18:25.967Z,99639.00
2022-12-20T13:21:20.071Z,99638.50
2022-12-20T13:23:48.272Z,99625.53
2022-12-20T13:26:44.116Z,99632.56
2022-12-20T13:29:29.602Z,99632.53
2022-12-20T13:31:57.795Z,99659.28
2022-12-20T13:34:53.816Z,99647.59
2022-12-20T13:37:29.563Z,99637.88
2022-12-20T13:39:58.433Z,99623.25
2022-12-20T13:42:38.694Z,99615.63
2022-12-20T13:45:12.543Z,99623.47
2022-12-20T13:47:47.643Z,99634.50
2022-12-20T13:50:40.617Z,99634.00
2022-12-20T13:53:18.948Z,99648.75
2022-12-20T13:55:50.324Z,99643.34
2022-12-20T13:58:21.144Z,99619.28
2022-12-20T14:00:51.005Z,99613.09
2022-12-20T14:03:25.469Z,99634.34
2022-12-20T14:05:59.684Z,99638.44
2022-12-20T14:08:31.340Z,99659.88
2022-12-20T14:11:09.480Z,99672.25
2022-12-20T14:13:37.533Z,99645.91
2022-12-20T14:16:11.188Z,99643.63
2022-12-20T14:18:39.342Z,99633.38
2022-12-20T14:21:10.232Z,99650.63
2022-12-20T14:23:41.413Z,99662.69
2022-12-20T14:26:14.105Z,99659.16
2022-12-20T14:28:45.526Z,99662.31
2022-12-20T14:31:26.296Z,99663.16
2022-12-20T14:34:05.664Z,99650.78
2022-12-20T14:36:36.251Z,99663.19
2022-12-20T14:39:24.158Z,99660.66
2022-12-20T14:41:57.774Z,99652.94
2022-12-20T14:44:27.497Z,99670.69
2022-12-20T14:46:57.360Z,99658.72
2022-12-20T14:49:30.310Z,99649.56
2022-12-20T14:52:15.089Z,99660.72
2022-12-20T14:57:44.315Z,99694.16
2022-12-20T15:00:21.292Z,99720.06
2022-12-20T15:02:53.853Z,99715.16
2022-12-20T15:05:43.730Z,99719.97
2022-12-20T15:08:15.152Z,99716.13
2022-12-20T15:10:44.348Z,99699.72
2022-12-20T15:13:15.454Z,99727.47
2022-12-20T15:15:44.039Z,99723.84
2022-12-20T15:18:16.306Z,99723.84
2022-12-20T15:20:46.059Z,99715.97
2022-12-20T15:23:17.536Z,99718.66
2022-12-20T15:25:45.827Z,99715.59
2022-12-20T15:28:16.957Z,99721.44
2022-12-20T15:30:46.359Z,99728.66
2022-12-20T15:33:17.917Z,99735.88
2022-12-20T15:35:47.198Z,99747.94
2022-12-20T15:38:25.357Z,99745.09
2022-12-20T15:41:04.156Z,99745.13
2022-12-20T15:43:38.824Z,99749.66
2022-12-20T15:46:07.622Z,99756.41
2022-12-20T15:48:35.701Z,99754.41
2022-12-20T15:51:17.071Z,99732.59
2022-12-20T15:53:46.695Z,99736.97
2022-12-20T15:56:19.619Z,99741.97
2022-12-20T15:58:48.384Z,99734.66
2022-12-20T16:01:20.220Z,99725.44
2022-12-20T16:03:48.532Z,99709.19
2022-12-20T16:06:17.308Z,99711.38
2022-12-20T16:08:46.875Z,99708.50
2022-12-20T16:11:23.676Z,99706.19
2022-12-20T16:13:52.633Z,99710.38
2022-12-20T16:16:23.358Z,99720.91
2022-12-20T16:18:53.777Z,99715.38
2022-12-20T16:21:24.032Z,99704.69
2022-12-20T16:23:55.474Z,99704.50
2022-12-20T16:26:25.499Z,99709.34
2022-12-20T16:28:55.240Z,99722.88
2022-12-20T16:31:26.316Z,99712.31
2022-12-20T16:33:56.123Z,99709.81
2022-12-20T16:36:25.088Z,99700.97
2022-12-20T16:38:55.152Z,99708.50
2022-12-20T16:41:27.505Z,99708.50
2022-12-20T16:43:57.020Z,99702.50
2022-12-20T16:46:27.517Z,99694.16
2022-12-20T16:48:57.067Z,99687.44
2022-12-20T16:51:26.923Z,99672.72
2022-12-20T16:56:47.292Z,99665.53
2022-12-20T16:59:20.906Z,99675.41
2022-12-20T17:01:52.447Z,99677.75
2022-12-20T17:04:21.771Z,99691.97
2022-12-20T17:06:50.533Z,99692.63
2022-12-20T17:12:15.328Z,99689.97
2022-12-20T17:14:43.477Z,99699.50
2022-12-20T17:17:11.579Z,99705.19
2022-12-20T17:19:39.588Z,99689.47
2022-12-20T17:24:55.205Z,99703.16
2022-12-20T17:27:23.236Z,99709.69
2022-12-20T17:29:52.288Z,99710.22
2022-12-20T17:32:22.811Z,99721.59
2022-12-20T17:34:51.114Z,99713.88
2022-12-20T17:37:21.604Z,99711.19
2022-12-20T17:39:50.005Z,99722.16
2022-12-20T17:42:19.393Z,99722.53
2022-12-20T17:44:47.621Z,99733.59
2022-12-20T17:47:17.818Z,99731.09
2022-12-20T17:49:46.060Z,99732.84
2022-12-20T17:52:15.568Z,99733.69
2022-12-20T17:54:43.889Z,99709.47
2022-12-20T17:57:16.173Z,99739.44
2022-12-20T17:59:46.348Z,99762.41
2022-12-20T18:02:22.055Z,99755.22
2022-12-20T18:04:50.908Z,99774.16
2022-12-20T18:07:19.122Z,99779.19
2022-12-20T18:09:48.812Z,99783.88
2022-12-20T18:12:17.057Z,99799.09
2022-12-20T18:14:46.474Z,99797.75
2022-12-20T18:17:14.683Z,99804.78
2022-12-20T18:19:43.952Z,99797.94
2022-12-20T18:22:12.199Z,99802.44
2022-12-20T18:24:40.211Z,99792.69
2022-12-20T18:27:08.258Z,99792.84
2022-12-20T18:29:57.809Z,99790.22
2022-12-20T18:32:28.090Z,99785.50
2022-12-20T18:34:56.078Z,99788.16
2022-12-20T18:37:24.257Z,99808.59
2022-12-20T18:39:52.247Z,99815.31
2022-12-20T18:42:20.317Z,99812.16
2022-12-20T18:44:48.375Z,99823.22
2022-12-20T18:47:18.164Z,99815.66
2022-12-20T18:49:46.151Z,99816.47
2022-12-20T18:52:14.237Z,99805.75
2022-12-20T18:54:44.885Z,99803.22
2022-12-20T18:57:13.151Z,99805.22
2022-12-20T18:59:41.185Z,99790.75
2022-12-20T19:02:12.371Z,99777.66
2022-12-20T19:04:41.984Z,99761.94
2022-12-20T19:07:11.203Z,99782.38
2022-12-20T19:09:39.244Z,99775.59
2022-12-20T19:12:07.505Z,99767.22
2022-12-20T19:14:35.668Z,99771.84
2022-12-20T19:17:03.905Z,99781.59
2022-12-20T19:19:32.057Z,99768.72
2022-12-20T19:22:01.441Z,99756.19
2022-12-20T19:24:29.424Z,99748.34
2022-12-20T19:26:57.659Z,99749.03
2022-12-20T19:29:25.744Z,99735.81
2022-12-20T19:31:53.790Z,99729.94
2022-12-20T19:34:22.191Z,99723.75
2022-12-20T19:36:50.359Z,99734.44
2022-12-20T19:39:22.255Z,99746.00
2022-12-20T19:42:21.520Z,99756.22
2022-12-20T19:44:39.084Z,99761.72
2022-12-20T19:47:07.371Z,99766.09
2022-12-20T19:49:36.881Z,99767.75
2022-12-20T19:52:05.802Z,99766.75
2022-12-20T19:54:35.615Z,99763.72
2022-12-20T19:57:03.712Z,99756.66
2022-12-20T19:59:31.696Z,99767.19
2022-12-20T20:01:59.854Z,99756.00
2022-12-20T20:04:28.670Z,99777.59
2022-12-20T20:06:57.529Z,99776.09
2022-12-20T20:09:25.816Z,99774.09
2022-12-20T20:11:55.230Z,99772.91
2022-12-20T20:14:23.647Z,99786.94
2022-12-20T20:16:51.681Z,99760.25
2022-12-20T20:19:20.516Z,99789.56
2022-12-20T20:21:49.213Z,99792.72
2022-12-20T20:24:17.532Z,99793.44
2022-12-20T20:26:45.602Z,99788.09
2022-12-20T20:29:14.971Z,99789.78
2022-12-20T20:31:43.064Z,99796.47
2022-12-20T20:34:12.223Z,99801.50
2022-12-20T20:36:40.377Z,99804.84
2022-12-20T20:39:08.440Z,99800.81
2022-12-20T20:41:37.151Z,99782.91
2022-12-20T20:44:05.456Z,99777.38
2022-12-20T20:46:34.876Z,99776.25
2022-12-20T20:49:03.190Z,99766.91
2022-12-20T20:51:31.140Z,99785.97
2022-12-20T20:54:01.697Z,99791.00
2022-12-20T20:56:29.699Z,99791.03
2022-12-20T20:59:03.168Z,99794.38
2022-12-20T21:01:36.388Z,99798.41
2022-12-20T21:04:05.167Z,99810.06
2022-12-20T21:06:40.404Z,99802.69
2022-12-20T21:09:08.943Z,99808.72
2022-12-20T21:11:37.543Z,99813.09
2022-12-20T21:14:05.907Z,99800.09
2022-12-20T21:16:36.938Z,99826.75
2022-12-20T21:19:05.694Z,99825.56
2022-12-20T21:21:33.735Z,99831.63
2022-12-20T21:24:02.887Z,99835.97
2022-12-20T21:26:30.948Z,99840.47
2022-12-20T21:28:59.538Z,99867.03
2022-12-20T21:31:28.091Z,99864.31
2022-12-20T21:33:58.231Z,99862.13
2022-12-20T21:36:26.415Z,99873.50
2022-12-20T21:38:56.471Z,99881.38
2022-12-20T21:41:26.160Z,99888.78
2022-12-20T21:43:57.836Z,99876.00
2022-12-20T21:46:27.217Z,99894.47
2022-12-20T21:48:58.732Z,99887.13
2022-12-20T21:51:28.269Z,99899.50
2022-12-20T21:53:58.233Z,99885.78
2022-12-20T21:56:27.965Z,99894.84
2022-12-20T21:58:56.625Z,99907.00
2022-12-20T22:01:26.771Z,99906.84
2022-12-20T22:03:58.872Z,99893.44
2022-12-20T22:06:28.191Z,99928.25
2022-12-20T22:08:57.927Z,99928.88
2022-12-20T22:11:26.408Z,99926.69
2022-12-20T22:13:55.839Z,99926.44
2022-12-20T22:16:26.457Z,99923.44
2022-12-20T22:18:56.200Z,99923.34
2022-12-20T22:21:27.862Z,99928.69
2022-12-20T22:23:56.569Z,99938.63
2022-12-20T22:26:26.821Z,99933.97
2022-12-20T22:28:58.032Z,99933.66
2022-12-20T22:31:26.564Z,99939.28
2022-12-20T22:33:55.183Z,99930.16
2022-12-20T22:36:25.738Z,99937.06
2022-12-20T22:38:54.984Z,99938.75
2022-12-20T22:41:27.913Z,99951.50
2022-12-20T22:43:56.906Z,99945.88
2022-12-20T22:46:28.449Z,99957.69
2022-12-20T22:48:59.451Z,99948.56
2022-12-20T22:51:31.799Z,99964.72
2022-12-20T22:54:00.835Z,99964.06
2022-12-20T22:56:29.003Z,99961.88
2022-12-20T22:58:57.197Z,99960.34
2022-12-20T23:01:25.702Z,99962.81
2022-12-20T23:03:54.149Z,99966.31
2022-12-20T23:06:22.892Z,99975.09
2022-12-20T23:08:52.763Z,99983.25
2022-12-20T23:11:40.305Z,99970.34
2022-12-20T23:14:30.511Z,99980.38
2022-12-20T23:16:59.302Z,99978.38
2022-12-20T23:19:27.981Z,99961.66
2022-12-20T23:22:13.611Z,99959.38
2022-12-20T23:24:42.897Z,99969.06
2022-12-20T23:27:10.924Z,99974.09
2022-12-20T23:29:38.931Z,99968.28
2022-12-20T23:32:07.242Z,99988.13
2022-12-20T23:34:35.438Z,99993.91
2022-12-20T23:37:03.359Z,99992.94
2022-12-20T23:39:31.467Z,99996.47
2022-12-20T23:42:00.801Z,100005.06
2022-12-20T23:44:28.850Z,100007.31
2022-12-20T23:46:59.153Z,100007.84
2022-12-20T23:49:27.126Z,100021.81
2022-12-20T23:51:55.154Z,100019.47
2022-12-20T23:54:23.501Z,100031.84
2022-12-20T23:56:51.505Z,100039.41
2022-12-20T23:59:20.815Z,100044.16
